Time;durP1;ratioP1;P1;durP2;ratioP2;P2;SDS_P1;SDS_P2;PMS_P1;PMS_P2;Temp;Humidity;BMP_temperature;BMP_pressure;BME280_temperature;BME280_humidity;BME280_pressure;Samples;Min_cycle;Max_cycle;Signal;HPM_P1;HPM_P2
2022/08/27 00:00:36;;;;;;;3.90;3.80;;;;;;;;;;4986095;28;20425;-67
2022/08/27 00:03:02;;;;;;;4.30;4.10;;;;;;;;;;4988464;28;20806;-67
2022/08/27 00:05:28;;;;;;;5.03;3.80;;;;;;;;;;4987562;28;20439;-66
2022/08/27 00:07:54;;;;;;;4.53;4.13;;;;;;;;;;4987806;28;20445;-67
2022/08/27 00:10:23;;;;;;;4.07;3.80;;;;;;;;;;4986785;28;20456;-67
2022/08/27 00:12:49;;;;;;;4.83;4.40;;;;;;;;;;4989049;28;20441;-70
2022/08/27 00:15:16;;;;;;;3.03;3.03;;;;;;;;;;4992331;28;20436;-70
2022/08/27 00:17:44;;;;;;;3.80;3.37;;;;;;;;;;4993021;28;20500;-69
2022/08/27 00:20:11;;;;;;;3.50;3.37;;;;;;;;;;4991380;28;20778;-69
2022/08/27 00:22:37;;;;;;;3.00;3.00;;;;;;;;;;4992762;28;20460;-67
2022/08/27 00:25:03;;;;;;;4.53;4.13;;;;;;;;;;4992585;28;21001;-67
2022/08/27 00:27:29;;;;;;;3.87;3.53;;;;;;;;;;4989821;28;20479;-67
2022/08/27 00:29:55;;;;;;;4.10;3.70;;;;;;;;;;4992154;28;20433;-69
2022/08/27 00:32:21;;;;;;;3.97;3.87;;;;;;;;;;4990509;28;20459;-67
2022/08/27 00:34:47;;;;;;;3.70;3.60;;;;;;;;;;4990046;28;20429;-69
2022/08/27 00:37:13;;;;;;;5.87;4.30;;;;;;;;;;4992231;28;20908;-70
2022/08/27 00:39:39;;;;;;;4.47;4.17;;;;;;;;;;4993230;28;20436;-69
2022/08/27 00:42:06;;;;;;;2.87;2.77;;;;;;;;;;4991540;28;20437;-68
2022/08/27 00:44:32;;;;;;;3.43;3.23;;;;;;;;;;4991095;28;21016;-68
2022/08/27 00:47:00;;;;;;;3.83;3.37;;;;;;;;;;4992554;28;20441;-67
2022/08/27 00:49:29;;;;;;;3.07;2.87;;;;;;;;;;4992656;28;20429;-67
2022/08/27 00:51:57;;;;;;;3.40;3.30;;;;;;;;;;4990279;28;20441;-70
2022/08/27 00:54:25;;;;;;;3.83;3.63;;;;;;;;;;5006812;28;20483;-66
2022/08/27 00:56:51;;;;;;;5.50;2.90;;;;;;;;;;4985905;28;20474;-68
2022/08/27 00:59:18;;;;;;;3.47;3.37;;;;;;;;;;5006446;28;20444;-68
2022/08/27 01:04:31;;;;;;;3.33;3.27;;;;;;;;;;4988942;28;20796;-70
2022/08/27 01:06:57;;;;;;;3.17;3.07;;;;;;;;;;5006691;28;20445;-67
2022/08/27 01:09:24;;;;;;;3.57;3.27;;;;;;;;;;4989571;28;21126;-67
2022/08/27 01:11:51;;;;;;;3.27;3.17;;;;;;;;;;5008036;28;20448;-70
2022/08/27 01:14:17;;;;;;;4.13;3.93;;;;;;;;;;4991496;28;20425;-66
2022/08/27 01:16:47;;;;;;;3.70;3.47;;;;;;;;;;4991755;28;20488;-68
2022/08/27 01:19:23;;;;;;;4.50;4.10;;;;;;;;;;4993131;28;20429;-66
2022/08/27 01:21:57;;;;;;;4.00;3.90;;;;;;;;;;4990034;28;20437;-66
2022/08/27 01:24:35;;;;;;;4.70;3.40;;;;;;;;;;4985474;28;20858;-68
2022/08/27 01:27:03;;;;;;;3.23;3.23;;;;;;;;;;4992831;28;20455;-67
2022/08/27 01:29:29;;;;;;;4.20;3.90;;;;;;;;;;4990208;28;20810;-68
2022/08/27 01:31:58;;;;;;;4.13;4.03;;;;;;;;;;4991472;28;20468;-69
2022/08/27 01:34:24;;;;;;;4.30;4.10;;;;;;;;;;4990099;28;20516;-70
2022/08/27 01:36:50;;;;;;;6.80;3.67;;;;;;;;;;4990808;28;20584;-70
2022/08/27 01:39:16;;;;;;;4.03;3.87;;;;;;;;;;4990919;28;20441;-67
2022/08/27 01:41:42;;;;;;;9.13;4.20;;;;;;;;;;4991684;28;20438;-68
2022/08/27 01:44:08;;;;;;;4.03;3.90;;;;;;;;;;4991546;28;20217;-69
2022/08/27 01:46:35;;;;;;;7.17;4.30;;;;;;;;;;5005201;28;20429;-68
2022/08/27 01:49:01;;;;;;;5.17;4.90;;;;;;;;;;4990388;28;20186;-68
2022/08/27 01:51:27;;;;;;;4.93;4.60;;;;;;;;;;4989683;28;20452;-70
2022/08/27 01:53:53;;;;;;;6.40;5.00;;;;;;;;;;4989586;28;20545;-69
2022/08/27 01:56:19;;;;;;;4.50;4.30;;;;;;;;;;4989869;28;20437;-68
2022/08/27 01:58:45;;;;;;;5.63;5.10;;;;;;;;;;4989943;28;20441;-69
2022/08/27 02:01:13;;;;;;;5.23;4.97;;;;;;;;;;4990058;28;20464;-68
2022/08/27 02:03:39;;;;;;;11.17;4.50;;;;;;;;;;4989921;28;20945;-70
2022/08/27 02:06:08;;;;;;;4.60;4.07;;;;;;;;;;4988818;28;20433;-70
2022/08/27 02:08:34;;;;;;;4.60;4.40;;;;;;;;;;4990129;28;20441;-67
2022/08/27 02:11:00;;;;;;;4.27;4.10;;;;;;;;;;4988307;28;20431;-68
2022/08/27 02:13:27;;;;;;;4.97;4.67;;;;;;;;;;4991406;28;20468;-67
2022/08/27 02:15:53;;;;;;;4.57;4.27;;;;;;;;;;4989209;28;20960;-68
2022/08/27 02:18:19;;;;;;;6.13;4.60;;;;;;;;;;4990536;28;20571;-67
2022/08/27 02:20:46;;;;;;;4.07;3.83;;;;;;;;;;4990593;28;20849;-69
2022/08/27 02:23:13;;;;;;;4.17;3.97;;;;;;;;;;5006530;28;20970;-67
2022/08/27 02:25:39;;;;;;;4.43;4.30;;;;;;;;;;4987350;28;21659;-69
2022/08/27 02:28:06;;;;;;;6.10;5.53;;;;;;;;;;4989362;28;20992;-69
2022/08/27 02:30:33;;;;;;;5.67;5.13;;;;;;;;;;4990735;28;20457;-67
2022/08/27 02:33:00;;;;;;;4.77;4.60;;;;;;;;;;4990099;28;20439;-70
2022/08/27 02:35:26;;;;;;;5.20;4.90;;;;;;;;;;4987668;28;20976;-66
2022/08/27 02:37:53;;;;;;;4.10;3.80;;;;;;;;;;4991269;28;20619;-66
2022/08/27 02:40:20;;;;;;;4.77;4.30;;;;;;;;;;4990065;28;20844;-69
2022/08/27 02:42:46;;;;;;;7.97;4.70;;;;;;;;;;4991121;28;20992;-66
2022/08/27 02:45:14;;;;;;;4.30;4.17;;;;;;;;;;4991385;28;20943;-67
2022/08/27 02:47:40;;;;;;;4.90;4.67;;;;;;;;;;4989887;28;20449;-67
2022/08/27 02:50:07;;;;;;;4.80;4.50;;;;;;;;;;4988694;28;20443;-67
2022/08/27 02:52:33;;;;;;;13.10;4.93;;;;;;;;;;4990964;28;20880;-66
2022/08/27 02:54:59;;;;;;;5.10;4.90;;;;;;;;;;5002160;28;20597;-70
2022/08/27 02:57:25;;;;;;;5.43;5.10;;;;;;;;;;4989986;28;20616;-68
2022/08/27 02:59:51;;;;;;;4.90;4.47;;;;;;;;;;4991158;28;20421;-67
2022/08/27 03:02:18;;;;;;;5.73;5.30;;;;;;;;;;4987779;28;20452;-69
2022/08/27 03:04:44;;;;;;;4.87;4.43;;;;;;;;;;5005486;28;20941;-66
2022/08/27 03:07:10;;;;;;;14.20;5.87;;;;;;;;;;4988731;28;20444;-66
2022/08/27 03:09:36;;;;;;;7.00;5.50;;;;;;;;;;4985238;28;20438;-67
2022/08/27 03:12:02;;;;;;;6.80;5.47;;;;;;;;;;4989455;28;20440;-67
2022/08/27 03:14:28;;;;;;;5.97;5.23;;;;;;;;;;4988720;28;20972;-69
2022/08/27 03:16:54;;;;;;;10.63;5.93;;;;;;;;;;4989856;28;20473;-68
2022/08/27 03:19:20;;;;;;;5.00;4.80;;;;;;;;;;4990420;28;20456;-69
2022/08/27 03:21:47;;;;;;;12.33;5.00;;;;;;;;;;4989056;28;20437;-69
2022/08/27 03:24:13;;;;;;;5.90;4.87;;;;;;;;;;4986689;28;20533;-68
2022/08/27 03:26:39;;;;;;;11.30;5.50;;;;;;;;;;5003147;28;20516;-68
2022/08/27 03:29:06;;;;;;;5.57;5.10;;;;;;;;;;4987581;28;20484;-71
2022/08/27 03:31:32;;;;;;;5.27;5.07;;;;;;;;;;4989270;28;20801;-67
2022/08/27 03:34:00;;;;;;;5.63;5.10;;;;;;;;;;4988714;28;20532;-67
2022/08/27 03:36:27;;;;;;;4.33;4.23;;;;;;;;;;4989317;28;21831;-66
2022/08/27 03:38:53;;;;;;;16.10;5.80;;;;;;;;;;4988537;28;21044;-70
2022/08/27 03:41:19;;;;;;;5.50;4.77;;;;;;;;;;4988911;28;20437;-67
2022/08/27 03:43:46;;;;;;;7.47;5.00;;;;;;;;;;4986078;28;20441;-67
2022/08/27 03:46:12;;;;;;;5.47;4.90;;;;;;;;;;4988527;28;20445;-68
2022/08/27 03:48:38;;;;;;;6.23;5.83;;;;;;;;;;4989007;28;20437;-66
2022/08/27 03:51:09;;;;;;;5.60;5.30;;;;;;;;;;4986235;28;20440;-68
2022/08/27 03:53:36;;;;;;;5.30;5.10;;;;;;;;;;4987436;28;20793;-70
2022/08/27 03:56:02;;;;;;;6.43;5.90;;;;;;;;;;4987223;28;20440;-67
2022/08/27 03:58:28;;;;;;;6.30;5.80;;;;;;;;;;4987212;28;20488;-67
2022/08/27 04:00:54;;;;;;;5.67;5.37;;;;;;;;;;4987631;28;20425;-67
2022/08/27 04:03:20;;;;;;;6.17;5.90;;;;;;;;;;4985844;28;20438;-67
2022/08/27 04:05:51;;;;;;;6.73;6.23;;;;;;;;;;4986306;28;20957;-67
2022/08/27 04:08:17;;;;;;;10.63;6.97;;;;;;;;;;4989199;28;20532;-69
2022/08/27 04:10:43;;;;;;;8.50;7.47;;;;;;;;;;4989362;28;20959;-70
2022/08/27 04:13:09;;;;;;;8.20;7.60;;;;;;;;;;4988577;28;20448;-71
2022/08/27 04:15:35;;;;;;;10.17;7.50;;;;;;;;;;4990251;28;20581;-70
2022/08/27 04:18:01;;;;;;;7.20;6.60;;;;;;;;;;4990093;28;20579;-70
2022/08/27 04:20:27;;;;;;;13.10;6.47;;;;;;;;;;4990035;28;20421;-70
2022/08/27 04:22:53;;;;;;;8.03;7.27;;;;;;;;;;5004264;28;20540;-69
2022/08/27 04:25:19;;;;;;;8.47;7.77;;;;;;;;;;4987843;28;20428;-71
2022/08/27 04:27:45;;;;;;;8.23;7.27;;;;;;;;;;4987616;28;20974;-67
2022/08/27 04:30:14;;;;;;;7.57;7.07;;;;;;;;;;4988278;28;20428;-67
2022/08/27 04:32:40;;;;;;;8.30;7.37;;;;;;;;;;4988255;28;20917;-67
2022/08/27 04:35:06;;;;;;;6.70;6.30;;;;;;;;;;4990426;28;20425;-68
2022/08/27 04:37:33;;;;;;;8.17;7.47;;;;;;;;;;4989143;28;21150;-67
2022/08/27 04:39:59;;;;;;;6.93;6.43;;;;;;;;;;4989059;28;20433;-70
2022/08/27 04:42:25;;;;;;;9.53;6.17;;;;;;;;;;4990341;28;20425;-70
2022/08/27 04:44:52;;;;;;;6.67;6.37;;;;;;;;;;4989113;28;20487;-69
2022/08/27 04:47:19;;;;;;;6.57;6.20;;;;;;;;;;4989975;28;20425;-66
2022/08/27 04:49:45;;;;;;;6.80;6.30;;;;;;;;;;4989720;28;20431;-70
2022/08/27 04:52:11;;;;;;;7.67;7.07;;;;;;;;;;4988406;28;20520;-70
2022/08/27 04:54:37;;;;;;;11.60;6.30;;;;;;;;;;4989627;28;20421;-70
2022/08/27 04:57:04;;;;;;;6.20;5.87;;;;;;;;;;4985463;28;20840;-69
2022/08/27 04:59:30;;;;;;;6.70;6.20;;;;;;;;;;4990571;28;20481;-66
2022/08/27 05:01:56;;;;;;;7.70;7.00;;;;;;;;;;4990737;28;20475;-66
2022/08/27 05:04:22;;;;;;;12.80;6.47;;;;;;;;;;4990374;28;20449;-67
2022/08/27 05:06:49;;;;;;;20.53;12.53;;;;;;;;;;4990078;28;20285;-66
2022/08/27 05:09:16;;;;;;;49.53;24.37;;;;;;;;;;4988960;28;20467;-71
2022/08/27 05:11:42;;;;;;;35.67;19.20;;;;;;;;;;4989842;28;20437;-67
2022/08/27 05:14:09;;;;;;;23.73;14.87;;;;;;;;;;4990075;28;20471;-67
2022/08/27 05:16:35;;;;;;;15.40;10.53;;;;;;;;;;4989905;28;20464;-69
2022/08/27 05:19:02;;;;;;;10.50;9.40;;;;;;;;;;4993251;28;20445;-67
2022/08/27 05:21:30;;;;;;;8.70;8.00;;;;;;;;;;4989278;28;20644;-67
2022/08/27 05:23:57;;;;;;;8.13;7.50;;;;;;;;;;4991113;28;20445;-67
2022/08/27 05:26:23;;;;;;;12.23;7.57;;;;;;;;;;4992078;28;20926;-68
2022/08/27 05:28:50;;;;;;;7.80;7.07;;;;;;;;;;4986930;28;20480;-67
2022/08/27 05:31:18;;;;;;;4.07;3.77;;;;;;;;;;4992546;28;20452;-68
2022/08/27 05:33:45;;;;;;;7.20;6.50;;;;;;;;;;4983114;28;20437;-67
2022/08/27 05:36:19;;;;;;;8.13;7.53;;;;;;;;;;4987570;28;20429;-66
2022/08/27 05:38:45;;;;;;;7.13;6.53;;;;;;;;;;4989027;28;20463;-66
2022/08/27 05:41:16;;;;;;;8.90;8.10;;;;;;;;;;4987631;28;20507;-68
2022/08/27 05:43:42;;;;;;;7.67;7.10;;;;;;;;;;4992284;28;20441;-69
2022/08/27 05:46:10;;;;;;;7.50;7.00;;;;;;;;;;4990988;28;20441;-66
2022/08/27 05:48:38;;;;;;;7.13;6.53;;;;;;;;;;4991551;28;20511;-66
2022/08/27 05:51:37;;;;;;;9.67;7.70;;;;;;;;;;4987929;28;20440;-66
2022/08/27 05:54:05;;;;;;;9.33;7.10;;;;;;;;;;4989252;28;20464;-67
2022/08/27 05:56:33;;;;;;;8.13;7.43;;;;;;;;;;4987542;28;20540;-68
2022/08/27 06:01:48;;;;;;;8.23;7.70;;;;;;;;;;4991040;28;20802;-69
2022/08/27 06:04:14;;;;;;;7.07;6.53;;;;;;;;;;4990010;28;20433;-68
2022/08/27 06:06:41;;;;;;;7.30;7.00;;;;;;;;;;4990736;28;20443;-65
2022/08/27 06:09:08;;;;;;;6.73;6.23;;;;;;;;;;4987849;28;20782;-69
2022/08/27 06:11:34;;;;;;;6.87;6.50;;;;;;;;;;4988361;28;20441;-67
2022/08/27 06:14:00;;;;;;;7.20;6.70;;;;;;;;;;4984922;28;20495;-67
2022/08/27 06:16:26;;;;;;;10.30;7.40;;;;;;;;;;4989538;28;20860;-66
2022/08/27 06:18:53;;;;;;;8.13;7.40;;;;;;;;;;4986003;28;20575;-66
2022/08/27 06:21:21;;;;;;;8.80;8.10;;;;;;;;;;4988014;28;20428;-67
2022/08/27 06:23:47;;;;;;;8.10;7.60;;;;;;;;;;4983197;28;20441;-66
2022/08/27 06:26:14;;;;;;;7.70;7.20;;;;;;;;;;4988089;28;20468;-65
2022/08/27 06:28:40;;;;;;;15.10;7.30;;;;;;;;;;4987550;28;20526;-69
2022/08/27 06:31:07;;;;;;;8.50;7.80;;;;;;;;;;4988977;28;20446;-67
2022/08/27 06:33:34;;;;;;;7.23;6.70;;;;;;;;;;4987517;28;20521;-68
2022/08/27 06:36:01;;;;;;;8.77;7.37;;;;;;;;;;4990222;28;20433;-69
2022/08/27 06:38:27;;;;;;;12.80;8.07;;;;;;;;;;4989311;28;21010;-66
2022/08/27 06:40:55;;;;;;;8.27;7.57;;;;;;;;;;4989540;28;20448;-67
2022/08/27 06:43:21;;;;;;;8.10;7.50;;;;;;;;;;4987526;28;20430;-66
2022/08/27 06:45:47;;;;;;;9.13;7.93;;;;;;;;;;4991136;28;20445;-66
2022/08/27 06:48:13;;;;;;;9.50;8.50;;;;;;;;;;4986757;28;20937;-67
2022/08/27 06:50:40;;;;;;;15.70;8.77;;;;;;;;;;4987406;28;20571;-66
2022/08/27 06:53:06;;;;;;;9.00;8.30;;;;;;;;;;4983934;28;20528;-68
2022/08/27 06:55:32;;;;;;;9.30;8.40;;;;;;;;;;4986223;28;20441;-66
2022/08/27 06:57:58;;;;;;;8.50;7.80;;;;;;;;;;4989393;28;20643;-70
2022/08/27 07:00:24;;;;;;;8.83;8.00;;;;;;;;;;4986173;28;21128;-71
2022/08/27 07:02:52;;;;;;;7.80;7.23;;;;;;;;;;4987292;28;20536;-69
2022/08/27 07:05:18;;;;;;;5.13;4.80;;;;;;;;;;4989005;28;20433;-67
2022/08/27 07:07:44;;;;;;;10.17;9.17;;;;;;;;;;5003357;28;20475;-67
2022/08/27 07:10:10;;;;;;;10.27;9.27;;;;;;;;;;4986752;28;20421;-70
2022/08/27 07:12:36;;;;;;;10.27;9.57;;;;;;;;;;4988190;28;20437;-67
2022/08/27 07:15:02;;;;;;;12.90;9.00;;;;;;;;;;4987723;28;20507;-71
2022/08/27 07:17:28;;;;;;;9.70;9.00;;;;;;;;;;4982207;28;20218;-70
2022/08/27 07:19:55;;;;;;;13.87;10.90;;;;;;;;;;4986488;28;20825;-70
2022/08/27 07:22:21;;;;;;;12.73;10.70;;;;;;;;;;4985749;28;20221;-69
2022/08/27 07:24:47;;;;;;;18.83;10.67;;;;;;;;;;4987071;28;20453;-67
2022/08/27 07:27:13;;;;;;;13.83;11.13;;;;;;;;;;4988622;28;20495;-67
2022/08/27 07:29:39;;;;;;;12.03;10.70;;;;;;;;;;4989447;28;20785;-70
2022/08/27 07:32:05;;;;;;;11.70;10.77;;;;;;;;;;4979516;28;20444;-71
2022/08/27 07:34:31;;;;;;;4.47;4.37;;;;;;;;;;4985208;28;20778;-66
2022/08/27 07:36:57;;;;;;;11.10;10.00;;;;;;;;;;4979395;28;20496;-67
2022/08/27 07:39:23;;;;;;;10.90;9.80;;;;;;;;;;4984771;28;20537;-69
2022/08/27 07:44:34;;;;;;;7.13;6.73;;;;;;;;;;4987680;28;20431;-68
2022/08/27 07:47:00;;;;;;;10.93;9.97;;;;;;;;;;5003491;28;20445;-68
2022/08/27 07:49:27;;;;;;;7.80;7.10;;;;;;;;;;4987048;28;20429;-67
2022/08/27 07:51:53;;;;;;;10.97;10.03;;;;;;;;;;4986686;28;20456;-70
2022/08/27 07:54:21;;;;;;;15.03;10.67;;;;;;;;;;4982097;28;20430;-69
2022/08/27 07:56:47;;;;;;;12.60;10.93;;;;;;;;;;4987240;28;20484;-70
2022/08/27 07:59:13;;;;;;;12.77;11.47;;;;;;;;;;4986728;28;20430;-69
2022/08/27 08:01:41;;;;;;;13.40;10.70;;;;;;;;;;4965391;28;20444;-70
2022/08/27 08:04:07;;;;;;;14.00;12.30;;;;;;;;;;4987174;28;20449;-69
2022/08/27 08:06:35;;;;;;;13.00;11.80;;;;;;;;;;4985979;28;20433;-69
2022/08/27 08:09:01;;;;;;;13.67;12.20;;;;;;;;;;4988256;28;20507;-68
2022/08/27 08:11:27;;;;;;;13.93;12.57;;;;;;;;;;4989833;28;20421;-70
2022/08/27 08:13:53;;;;;;;17.00;12.57;;;;;;;;;;4989408;28;20445;-70
2022/08/27 08:16:19;;;;;;;17.07;12.00;;;;;;;;;;4983700;28;20272;-69
2022/08/27 08:18:45;;;;;;;14.80;11.70;;;;;;;;;;4989355;28;20429;-68
2022/08/27 08:21:13;;;;;;;193.30;58.80;;;;;;;;;;4989419;28;20421;-68
2022/08/27 08:23:40;;;;;;;14.60;13.13;;;;;;;;;;4983654;28;20433;-68
2022/08/27 08:26:07;;;;;;;17.07;12.90;;;;;;;;;;4986968;28;20521;-69
2022/08/27 08:28:33;;;;;;;13.80;12.10;;;;;;;;;;4984943;28;20531;-67
2022/08/27 08:30:59;;;;;;;17.77;14.03;;;;;;;;;;4986710;28;20468;-67
2022/08/27 08:33:26;;;;;;;17.03;12.97;;;;;;;;;;4985651;28;20469;-68
2022/08/27 08:35:52;;;;;;;17.03;13.23;;;;;;;;;;4984679;28;20432;-70
2022/08/27 08:38:18;;;;;;;19.80;14.70;;;;;;;;;;4992247;28;20487;-68
2022/08/27 08:40:49;;;;;;;18.53;13.30;;;;;;;;;;4989524;28;20452;-69
2022/08/27 08:43:36;;;;;;;16.20;14.47;;;;;;;;;;4986992;28;20825;-68
2022/08/27 08:46:07;;;;;;;6.47;6.03;;;;;;;;;;4986626;28;20458;-67
2022/08/27 08:48:34;;;;;;;17.10;12.30;;;;;;;;;;4990507;28;20444;-68
2022/08/27 08:51:07;;;;;;;14.07;12.47;;;;;;;;;;4990002;28;20444;-69
2022/08/27 08:53:38;;;;;;;16.80;13.40;;;;;;;;;;4991866;28;20524;-68
2022/08/27 08:56:07;;;;;;;18.50;14.07;;;;;;;;;;4990499;28;20796;-68
2022/08/27 08:58:38;;;;;;;18.03;13.17;;;;;;;;;;4991215;28;20472;-68
2022/08/27 09:01:05;;;;;;;19.47;13.90;;;;;;;;;;4991897;28;20432;-68
2022/08/27 09:03:34;;;;;;;7.43;6.03;;;;;;;;;;4989500;28;20784;-68
2022/08/27 09:06:22;;;;;;;8.43;7.90;;;;;;;;;;4987052;28;20449;-68
2022/08/27 09:08:48;;;;;;;19.73;12.23;;;;;;;;;;4991487;28;20924;-71
2022/08/27 09:11:17;;;;;;;15.13;12.37;;;;;;;;;;4992016;28;20443;-70
2022/08/27 09:13:48;;;;;;;14.50;7.77;;;;;;;;;;4989724;28;20491;-68
2022/08/27 09:16:14;;;;;;;9.53;7.63;;;;;;;;;;4992645;28;20436;-68
2022/08/27 09:18:41;;;;;;;6.80;6.40;;;;;;;;;;4989373;28;20488;-68
2022/08/27 09:21:31;;;;;;;16.10;13.10;;;;;;;;;;4992060;28;20957;-69
2022/08/27 09:24:12;;;;;;;15.20;12.00;;;;;;;;;;4986717;28;20484;-71
2022/08/27 09:26:40;;;;;;;12.47;11.27;;;;;;;;;;4988942;28;21770;-70
2022/08/27 09:29:19;;;;;;;17.50;12.10;;;;;;;;;;4988667;28;20593;-70
2022/08/27 09:31:47;;;;;;;15.27;11.47;;;;;;;;;;4988798;28;21012;-68
2022/08/27 09:34:13;;;;;;;13.50;12.05;;;;;;;;;;4988648;28;20849;-73
2022/08/27 09:36:48;;;;;;;19.50;12.13;;;;;;;;;;4991361;28;20221;-74
2022/08/27 09:39:14;;;;;;;13.33;11.93;;;;;;;;;;4991351;28;20475;-71
2022/08/27 09:41:45;;;;;;;13.73;12.23;;;;;;;;;;4990327;28;20518;-75
2022/08/27 09:44:12;;;;;;;17.30;12.97;;;;;;;;;;4989943;28;20459;-71
2022/08/27 09:46:38;;;;;;;14.43;12.50;;;;;;;;;;4984245;28;20434;-67
2022/08/27 09:49:11;;;;;;;18.10;14.10;;;;;;;;;;4989653;28;20445;-73
2022/08/27 09:51:39;;;;;;;14.97;12.90;;;;;;;;;;4992188;28;20560;-73
2022/08/27 09:54:06;;;;;;;14.97;12.90;;;;;;;;;;4990147;28;20440;-70
2022/08/27 09:56:37;;;;;;;16.93;13.87;;;;;;;;;;4989806;28;20445;-70
2022/08/27 09:59:05;;;;;;;23.27;18.53;;;;;;;;;;4988555;28;20510;-66
2022/08/27 10:01:32;;;;;;;16.53;13.93;;;;;;;;;;4989208;28;20436;-69
2022/08/27 10:04:07;;;;;;;17.30;15.50;;;;;;;;;;4989586;28;20447;-69
2022/08/27 10:06:34;;;;;;;26.70;15.13;;;;;;;;;;4988678;28;20421;-71
2022/08/27 10:09:05;;;;;;;18.47;15.13;;;;;;;;;;4990311;28;20524;-72
2022/08/27 10:11:44;;;;;;;27.00;14.07;;;;;;;;;;4990296;28;20436;-72
2022/08/27 10:14:19;;;;;;;19.30;15.70;;;;;;;;;;4987701;28;20456;-74
2022/08/27 10:16:57;;;;;;;19.93;14.23;;;;;;;;;;4990745;28;20500;-73
2022/08/27 10:19:46;;;;;;;16.80;13.80;;;;;;;;;;4992027;28;20432;-72
2022/08/27 10:22:15;;;;;;;15.13;13.63;;;;;;;;;;4988478;28;20495;-74
2022/08/27 10:25:00;;;;;;;15.50;13.77;;;;;;;;;;4989227;28;20449;-71
2022/08/27 10:28:02;;;;;;;16.53;13.87;;;;;;;;;;4990403;28;20859;-72
2022/08/27 10:30:37;;;;;;;15.67;12.60;;;;;;;;;;4986190;28;20932;-72
2022/08/27 10:33:13;;;;;;;14.37;12.90;;;;;;;;;;4985782;28;20449;-70
2022/08/27 10:35:46;;;;;;;17.33;14.27;;;;;;;;;;4989776;28;20455;-68
2022/08/27 10:38:30;;;;;;;23.47;14.37;;;;;;;;;;4989789;28;20493;-69
2022/08/27 10:41:05;;;;;;;14.07;12.53;;;;;;;;;;4990592;28;20441;-78
2022/08/27 10:43:34;;;;;;;17.33;11.17;;;;;;;;;;4987218;28;20445;-68
2022/08/27 10:46:26;;;;;;;12.37;11.20;;;;;;;;;;4989531;28;20445;-68
2022/08/27 10:48:56;;;;;;;12.80;11.50;;;;;;;;;;4984512;28;20436;-67
2022/08/27 10:51:35;;;;;;;12.90;11.60;;;;;;;;;;4987315;28;21003;-67
2022/08/27 10:54:01;;;;;;;12.73;10.60;;;;;;;;;;4987047;28;20429;-67
2022/08/27 10:56:35;;;;;;;11.57;10.10;;;;;;;;;;4989182;28;20971;-70
2022/08/27 10:59:20;;;;;;;11.33;9.90;;;;;;;;;;4989352;28;20189;-69
2022/08/27 11:01:57;;;;;;;19.20;11.07;;;;;;;;;;5003584;28;20517;-69
2022/08/27 11:04:32;;;;;;;10.03;9.13;;;;;;;;;;4990619;28;20425;-71
2022/08/27 11:07:04;;;;;;;11.77;9.43;;;;;;;;;;4984217;28;20595;-69
2022/08/27 11:09:36;;;;;;;13.07;10.93;;;;;;;;;;4986644;28;20441;-69
2022/08/27 11:12:05;;;;;;;12.47;10.97;;;;;;;;;;4986861;28;20425;-67
2022/08/27 11:14:31;;;;;;;13.07;11.77;;;;;;;;;;4987980;28;20440;-68
2022/08/27 11:17:02;;;;;;;13.83;11.30;;;;;;;;;;4989194;28;20831;-70
2022/08/27 11:19:40;;;;;;;14.33;12.93;;;;;;;;;;4990098;28;20197;-69
2022/08/27 11:22:21;;;;;;;11.53;10.53;;;;;;;;;;4991009;28;20830;-67
2022/08/27 11:24:53;;;;;;;10.30;9.50;;;;;;;;;;4987608;28;20810;-68
2022/08/27 11:27:23;;;;;;;12.67;9.27;;;;;;;;;;4990146;28;20814;-68
2022/08/27 11:29:53;;;;;;;9.60;8.70;;;;;;;;;;4988987;28;20477;-69
2022/08/27 11:32:22;;;;;;;12.40;9.40;;;;;;;;;;4991238;28;20449;-67
2022/08/27 11:35:01;;;;;;;9.10;8.27;;;;;;;;;;4987708;28;20433;-70
2022/08/27 11:37:26;;;;;;;13.03;9.90;;;;;;;;;;4988421;28;20484;-69
2022/08/27 11:40:28;;;;;;;10.77;9.67;;;;;;;;;;4990147;28;20486;-68
2022/08/27 11:42:57;;;;;;;11.03;9.93;;;;;;;;;;4988103;28;20428;-68
2022/08/27 11:45:28;;;;;;;13.93;9.80;;;;;;;;;;4986456;28;20432;-68
2022/08/27 11:47:58;;;;;;;11.20;10.10;;;;;;;;;;4989208;28;20466;-69
2022/08/27 11:50:24;;;;;;;12.30;11.07;;;;;;;;;;4990309;28;20465;-67
2022/08/27 11:52:58;;;;;;;9.83;8.93;;;;;;;;;;4986767;28;20481;-69
2022/08/27 11:55:27;;;;;;;10.07;9.23;;;;;;;;;;4987777;28;20441;-66
2022/08/27 11:58:03;;;;;;;10.47;9.57;;;;;;;;;;4986106;28;20897;-69
2022/08/27 12:00:32;;;;;;;11.60;10.47;;;;;;;;;;4988789;28;20523;-69
2022/08/27 12:02:58;;;;;;;11.60;10.30;;;;;;;;;;4985936;28;20540;-69
2022/08/27 12:05:32;;;;;;;9.73;8.93;;;;;;;;;;4986872;28;20532;-67
2022/08/27 12:07:59;;;;;;;11.20;9.73;;;;;;;;;;4989441;28;20197;-69
2022/08/27 12:10:26;;;;;;;12.53;11.23;;;;;;;;;;4988808;28;20906;-69
2022/08/27 12:13:11;;;;;;;15.80;13.40;;;;;;;;;;4987410;28;20464;-66
2022/08/27 12:15:39;;;;;;;14.93;13.37;;;;;;;;;;4983024;28;20872;-66
2022/08/27 12:18:14;;;;;;;15.90;12.68;;;;;;;;;;4988908;28;20539;-68
2022/08/27 12:20:55;;;;;;;13.40;12.20;;;;;;;;;;4990152;28;20184;-68
2022/08/27 12:23:39;;;;;;;13.37;11.90;;;;;;;;;;4989920;28;20428;-68
2022/08/27 12:26:23;;;;;;;15.63;13.40;;;;;;;;;;4986716;28;21061;-70
2022/08/27 12:28:50;;;;;;;20.00;14.07;;;;;;;;;;4988637;28;20481;-68
2022/08/27 12:31:20;;;;;;;14.23;12.80;;;;;;;;;;4988137;28;21476;-68
2022/08/27 12:33:48;;;;;;;16.37;13.53;;;;;;;;;;4989698;28;20429;-66
2022/08/27 12:36:21;;;;;;;21.40;14.77;;;;;;;;;;4983958;28;20433;-68
2022/08/27 12:38:48;;;;;;;19.70;16.17;;;;;;;;;;4989560;28;20496;-66
2022/08/27 12:41:31;;;;;;;16.97;15.10;;;;;;;;;;4987812;28;20421;-66
2022/08/27 12:44:03;;;;;;;15.80;14.40;;;;;;;;;;4988886;28;20519;-66
2022/08/27 12:46:29;;;;;;;15.43;13.90;;;;;;;;;;4990079;28;20897;-68
2022/08/27 12:48:57;;;;;;;24.50;13.53;;;;;;;;;;4987848;28;20434;-66
2022/08/27 12:51:23;;;;;;;17.53;15.63;;;;;;;;;;4988018;28;20467;-66
2022/08/27 12:54:07;;;;;;;16.03;14.03;;;;;;;;;;4986262;28;20933;-69
2022/08/27 12:56:52;;;;;;;14.47;13.07;;;;;;;;;;4988338;28;20280;-66
2022/08/27 12:59:18;;;;;;;16.23;14.63;;;;;;;;;;4986513;28;20432;-66
2022/08/27 13:02:10;;;;;;;15.00;13.40;;;;;;;;;;4988871;28;20934;-67
2022/08/27 13:04:38;;;;;;;15.60;14.20;;;;;;;;;;4987823;28;20433;-67
2022/08/27 13:07:04;;;;;;;16.10;14.60;;;;;;;;;;4986962;28;20417;-67
2022/08/27 13:09:31;;;;;;;17.87;16.00;;;;;;;;;;4984289;28;20924;-66
2022/08/27 13:11:58;;;;;;;16.43;13.40;;;;;;;;;;4986842;28;20862;-66
2022/08/27 13:14:25;;;;;;;15.43;13.80;;;;;;;;;;4987226;28;20444;-67
2022/08/27 13:16:56;;;;;;;12.33;11.13;;;;;;;;;;4986002;28;20472;-66
2022/08/27 13:19:30;;;;;;;15.40;13.40;;;;;;;;;;4987264;28;20452;-67
2022/08/27 13:21:56;;;;;;;13.73;12.33;;;;;;;;;;4989118;28;20512;-68
2022/08/27 13:24:36;;;;;;;15.13;13.20;;;;;;;;;;4990687;28;20437;-68
2022/08/27 13:27:03;;;;;;;14.00;12.80;;;;;;;;;;4988941;28;21063;-69
2022/08/27 13:29:30;;;;;;;14.17;12.77;;;;;;;;;;4992083;28;20444;-66
2022/08/27 13:31:56;;;;;;;13.20;11.87;;;;;;;;;;4989888;28;20802;-68
2022/08/27 13:34:24;;;;;;;14.80;13.30;;;;;;;;;;4987269;28;20441;-68
2022/08/27 13:37:16;;;;;;;13.53;10.67;;;;;;;;;;4990910;28;20799;-65
2022/08/27 13:39:43;;;;;;;14.70;11.30;;;;;;;;;;4994177;28;20453;-67
2022/08/27 13:42:09;;;;;;;10.47;9.67;;;;;;;;;;4990206;28;20413;-66
2022/08/27 13:44:37;;;;;;;14.50;12.20;;;;;;;;;;4986863;28;20556;-66
2022/08/27 13:47:05;;;;;;;13.13;11.80;;;;;;;;;;4990529;28;20433;-65
2022/08/27 13:49:33;;;;;;;11.57;10.67;;;;;;;;;;4984843;28;20495;-69
2022/08/27 13:52:02;;;;;;;18.93;11.67;;;;;;;;;;4980539;28;20449;-66
2022/08/27 13:54:28;;;;;;;9.97;9.17;;;;;;;;;;4988653;28;20475;-69
2022/08/27 13:57:07;;;;;;;14.10;10.90;;;;;;;;;;4989821;28;20472;-67
2022/08/27 13:59:33;;;;;;;11.60;10.47;;;;;;;;;;4990587;28;20461;-70
2022/08/27 14:01:59;;;;;;;11.03;10.03;;;;;;;;;;4990351;28;20431;-70
2022/08/27 14:04:27;;;;;;;11.50;10.60;;;;;;;;;;4992474;28;20708;-68
2022/08/27 14:06:53;;;;;;;11.40;10.40;;;;;;;;;;4992285;28;20273;-71
2022/08/27 14:09:22;;;;;;;14.97;11.10;;;;;;;;;;4991600;28;20433;-66
2022/08/27 14:11:49;;;;;;;11.23;10.23;;;;;;;;;;4990860;28;20433;-69
2022/08/27 14:14:17;;;;;;;11.20;10.07;;;;;;;;;;4992205;28;20479;-69
2022/08/27 14:16:43;;;;;;;10.70;9.70;;;;;;;;;;4991093;28;20521;-67
2022/08/27 14:19:24;;;;;;;11.53;10.53;;;;;;;;;;4989850;28;20872;-66
2022/08/27 14:21:51;;;;;;;14.23;10.23;;;;;;;;;;4987464;28;20437;-66
2022/08/27 14:24:17;;;;;;;11.23;10.10;;;;;;;;;;4991016;28;20436;-66
2022/08/27 14:26:43;;;;;;;11.33;10.33;;;;;;;;;;4991852;28;20417;-66
2022/08/27 14:29:09;;;;;;;12.00;10.93;;;;;;;;;;4989503;28;20233;-66
2022/08/27 14:31:35;;;;;;;11.10;10.10;;;;;;;;;;4986824;28;20922;-69
2022/08/27 14:34:01;;;;;;;12.23;11.03;;;;;;;;;;4991203;28;20468;-69
2022/08/27 14:36:28;;;;;;;12.53;11.33;;;;;;;;;;4990009;28;20429;-69
2022/08/27 14:38:55;;;;;;;11.50;10.50;;;;;;;;;;4989719;28;20511;-69
2022/08/27 14:41:21;;;;;;;10.70;9.80;;;;;;;;;;4989426;28;20445;-67
2022/08/27 14:43:47;;;;;;;13.17;11.90;;;;;;;;;;4987430;28;20436;-69
2022/08/27 14:46:22;;;;;;;10.67;9.77;;;;;;;;;;4986659;28;20433;-68
2022/08/27 14:48:48;;;;;;;11.17;10.30;;;;;;;;;;4989997;28;20853;-67